Geraldine, Montana
Current Conditions -  °F | °C
As of 4:56 AM on Sunday 23 Nov 2014 (Local Time) from KGFA Reporting Station
Broken Clouds Broken Clouds  
Wind Chill: 26°   Ceiling: 7500
Heat Index: 33°   Visibility: 10mi
Dew Point: 20°   Wind: 9mph
Humidity: 57%   Direction: 260°W
Pressure: 29.84"   Gusts: NA
Location:  47.6°N, 110.27°W
Report Text: KGFA 231156Z AUTO 26008KT 10SM BKN075 BKN100 01/M07 A2984 RMK AO2 SLP130 70001 T00081069 10018 21012 52026
Loading
Personal Weather Stations






























Interactive Weather Map New forecast layout! Learn more

10-Day Weather Forecast

Advertisements
Track Severe Weather on mobile